sensor_id;sensor_type;location;lat;lon;timestamp;temperature;humidity
11009;DHT22;5557;51.670;7.788;2023-05-21T00:01:15;13.30;54.60
11009;DHT22;5557;51.670;7.788;2023-05-21T00:03:42;13.40;54.30
11009;DHT22;5557;51.670;7.788;2023-05-21T00:06:12;13.30;55.10
11009;DHT22;5557;51.670;7.788;2023-05-21T00:08:39;13.20;57.50
11009;DHT22;5557;51.670;7.788;2023-05-21T00:11:06;13.20;59.20
11009;DHT22;5557;51.670;7.788;2023-05-21T00:13:33;13.20;59.90
11009;DHT22;5557;51.670;7.788;2023-05-21T00:16:00;13.20;62.40
11009;DHT22;5557;51.670;7.788;2023-05-21T00:18:27;13.10;61.40
11009;DHT22;5557;51.670;7.788;2023-05-21T00:20:54;13.10;62.00
11009;DHT22;5557;51.670;7.788;2023-05-21T00:23:21;13.10;62.30
11009;DHT22;5557;51.670;7.788;2023-05-21T00:25:48;13.10;63.60
11009;DHT22;5557;51.670;7.788;2023-05-21T00:28:16;13.10;64.00
11009;DHT22;5557;51.670;7.788;2023-05-21T00:30:43;13.10;63.90
11009;DHT22;5557;51.670;7.788;2023-05-21T00:33:10;13.10;63.90
11009;DHT22;5557;51.670;7.788;2023-05-21T00:35:39;13.10;64.00
11009;DHT22;5557;51.670;7.788;2023-05-21T00:38:07;13.10;64.80
11009;DHT22;5557;51.670;7.788;2023-05-21T00:40:35;13.00;66.70
11009;DHT22;5557;51.670;7.788;2023-05-21T00:43:02;12.90;69.20
11009;DHT22;5557;51.670;7.788;2023-05-21T00:45:29;13.00;69.40
11009;DHT22;5557;51.670;7.788;2023-05-21T00:47:56;13.00;70.30
11009;DHT22;5557;51.670;7.788;2023-05-21T00:50:23;12.90;70.90
11009;DHT22;5557;51.670;7.788;2023-05-21T00:52:51;12.90;71.90
11009;DHT22;5557;51.670;7.788;2023-05-21T00:55:19;12.80;73.30
11009;DHT22;5557;51.670;7.788;2023-05-21T00:57:46;12.80;74.30
11009;DHT22;5557;51.670;7.788;2023-05-21T01:00:13;12.70;76.40
11009;DHT22;5557;51.670;7.788;2023-05-21T01:02:41;12.70;79.00
11009;DHT22;5557;51.670;7.788;2023-05-21T01:05:10;12.60;82.50
11009;DHT22;5557;51.670;7.788;2023-05-21T01:07:38;12.60;83.40
11009;DHT22;5557;51.670;7.788;2023-05-21T01:10:10;12.60;85.10
11009;DHT22;5557;51.670;7.788;2023-05-21T01:12:38;12.50;85.50
11009;DHT22;5557;51.670;7.788;2023-05-21T01:15:07;12.50;87.10
11009;DHT22;5557;51.670;7.788;2023-05-21T01:17:34;12.50;89.60
11009;DHT22;5557;51.670;7.788;2023-05-21T01:20:02;12.40;90.60
11009;DHT22;5557;51.670;7.788;2023-05-21T01:25:09;12.40;91.10
11009;DHT22;5557;51.670;7.788;2023-05-21T01:27:36;12.40;92.10
11009;DHT22;5557;51.670;7.788;2023-05-21T01:30:04;12.40;92.70
11009;DHT22;5557;51.670;7.788;2023-05-21T01:32:47;12.40;93.30
11009;DHT22;5557;51.670;7.788;2023-05-21T01:35:20;12.40;92.80
11009;DHT22;5557;51.670;7.788;2023-05-21T01:38:00;12.40;92.90
11009;DHT22;5557;51.670;7.788;2023-05-21T01:40:35;12.40;93.60
11009;DHT22;5557;51.670;7.788;2023-05-21T01:43:05;12.40;94.10
11009;DHT22;5557;51.670;7.788;2023-05-21T01:45:35;12.40;93.90
11009;DHT22;5557;51.670;7.788;2023-05-21T01:48:07;12.40;94.40
11009;DHT22;5557;51.670;7.788;2023-05-21T01:50:36;12.50;94.30
11009;DHT22;5557;51.670;7.788;2023-05-21T01:53:04;12.50;94.20
11009;DHT22;5557;51.670;7.788;2023-05-21T01:55:31;12.50;93.90
11009;DHT22;5557;51.670;7.788;2023-05-21T01:57:58;12.50;93.80
11009;DHT22;5557;51.670;7.788;2023-05-21T02:00:28;12.50;94.40
11009;DHT22;5557;51.670;7.788;2023-05-21T02:02:55;12.50;94.80
11009;DHT22;5557;51.670;7.788;2023-05-21T02:05:22;12.50;94.20
11009;DHT22;5557;51.670;7.788;2023-05-21T02:07:50;12.50;94.30
11009;DHT22;5557;51.670;7.788;2023-05-21T02:10:20;12.50;94.40
11009;DHT22;5557;51.670;7.788;2023-05-21T02:12:47;12.50;95.10
11009;DHT22;5557;51.670;7.788;2023-05-21T02:15:14;12.50;95.00
11009;DHT22;5557;51.670;7.788;2023-05-21T02:17:44;12.50;95.00
11009;DHT22;5557;51.670;7.788;2023-05-21T02:20:12;12.50;95.90
11009;DHT22;5557;51.670;7.788;2023-05-21T02:22:41;12.50;96.40
11009;DHT22;5557;51.670;7.788;2023-05-21T02:25:09;12.40;97.00
11009;DHT22;5557;51.670;7.788;2023-05-21T02:27:38;12.40;97.70
11009;DHT22;5557;51.670;7.788;2023-05-21T02:30:11;12.40;98.30
11009;DHT22;5557;51.670;7.788;2023-05-21T02:32:39;12.30;98.30
11009;DHT22;5557;51.670;7.788;2023-05-21T02:35:11;12.30;99.40
11009;DHT22;5557;51.670;7.788;2023-05-21T02:37:39;12.30;99.90
11009;DHT22;5557;51.670;7.788;2023-05-21T02:40:07;12.20;99.90
11009;DHT22;5557;51.670;7.788;2023-05-21T02:42:36;12.20;99.90
11009;DHT22;5557;51.670;7.788;2023-05-21T02:45:07;12.20;99.90
11009;DHT22;5557;51.670;7.788;2023-05-21T02:47:34;12.10;99.90
11009;DHT22;5557;51.670;7.788;2023-05-21T02:50:01;12.10;99.90
11009;DHT22;5557;51.670;7.788;2023-05-21T02:52:28;12.00;99.90
11009;DHT22;5557;51.670;7.788;2023-05-21T02:54:55;12.00;99.90
11009;DHT22;5557;51.670;7.788;2023-05-21T02:57:22;12.00;99.90
11009;DHT22;5557;51.670;7.788;2023-05-21T02:59:49;12.00;99.90
11009;DHT22;5557;51.670;7.788;2023-05-21T03:02:16;12.00;99.90
11009;DHT22;5557;51.670;7.788;2023-05-21T03:04:43;12.00;99.90
11009;DHT22;5557;51.670;7.788;2023-05-21T03:07:14;12.00;99.90
11009;DHT22;5557;51.670;7.788;2023-05-21T03:09:41;12.00;99.90
11009;DHT22;5557;51.670;7.788;2023-05-21T03:12:08;11.90;99.90
11009;DHT22;5557;51.670;7.788;2023-05-21T03:14:36;11.90;99.90
11009;DHT22;5557;51.670;7.788;2023-05-21T03:17:03;11.80;99.90
11009;DHT22;5557;51.670;7.788;2023-05-21T03:19:33;11.90;99.90
11009;DHT22;5557;51.670;7.788;2023-05-21T03:22:03;11.80;99.90
11009;DHT22;5557;51.670;7.788;2023-05-21T03:24:30;11.80;99.90
11009;DHT22;5557;51.670;7.788;2023-05-21T03:26:58;11.80;99.90
11009;DHT22;5557;51.670;7.788;2023-05-21T03:29:26;11.90;99.90
11009;DHT22;5557;51.670;7.788;2023-05-21T03:31:54;11.80;99.90
11009;DHT22;5557;51.670;7.788;2023-05-21T03:34:21;11.90;99.90
11009;DHT22;5557;51.670;7.788;2023-05-21T03:36:49;11.80;99.90
11009;DHT22;5557;51.670;7.788;2023-05-21T03:39:16;11.90;99.90
11009;DHT22;5557;51.670;7.788;2023-05-21T03:41:44;11.90;99.90
11009;DHT22;5557;51.670;7.788;2023-05-21T03:44:11;11.90;99.90
11009;DHT22;5557;51.670;7.788;2023-05-21T03:46:37;11.90;99.90
11009;DHT22;5557;51.670;7.788;2023-05-21T03:49:04;11.90;99.90
11009;DHT22;5557;51.670;7.788;2023-05-21T03:51:31;11.90;99.90
11009;DHT22;5557;51.670;7.788;2023-05-21T03:53:58;11.90;99.90
11009;DHT22;5557;51.670;7.788;2023-05-21T03:56:25;12.00;99.90
11009;DHT22;5557;51.670;7.788;2023-05-21T03:58:52;12.00;99.90
11009;DHT22;5557;51.670;7.788;2023-05-21T04:01:19;12.10;99.90
11009;DHT22;5557;51.670;7.788;2023-05-21T04:03:46;12.10;99.90
11009;DHT22;5557;51.670;7.788;2023-05-21T04:06:13;12.20;99.90
11009;DHT22;5557;51.670;7.788;2023-05-21T04:08:41;12.20;99.90
11009;DHT22;5557;51.670;7.788;2023-05-21T04:11:08;12.20;99.90
11009;DHT22;5557;51.670;7.788;2023-05-21T04:13:35;12.20;99.90
11009;DHT22;5557;51.670;7.788;2023-05-21T04:16:04;12.30;99.90
11009;DHT22;5557;51.670;7.788;2023-05-21T04:18:31;12.30;99.90
11009;DHT22;5557;51.670;7.788;2023-05-21T04:20:59;12.30;99.90
11009;DHT22;5557;51.670;7.788;2023-05-21T04:23:28;12.30;99.90
11009;DHT22;5557;51.670;7.788;2023-05-21T04:25:54;12.30;99.90
11009;DHT22;5557;51.670;7.788;2023-05-21T04:28:21;12.40;99.90
11009;DHT22;5557;51.670;7.788;2023-05-21T04:30:49;12.40;99.90
11009;DHT22;5557;51.670;7.788;2023-05-21T04:33:16;12.40;99.90
11009;DHT22;5557;51.670;7.788;2023-05-21T04:35:46;12.40;99.90
11009;DHT22;5557;51.670;7.788;2023-05-21T04:38:16;12.40;99.90
11009;DHT22;5557;51.670;7.788;2023-05-21T04:40:48;12.50;99.90
11009;DHT22;5557;51.670;7.788;2023-05-21T04:43:19;12.50;99.90
11009;DHT22;5557;51.670;7.788;2023-05-21T04:45:52;12.50;99.90
11009;DHT22;5557;51.670;7.788;2023-05-21T04:48:21;12.50;99.90
11009;DHT22;5557;51.670;7.788;2023-05-21T04:50:52;12.50;99.90
11009;DHT22;5557;51.670;7.788;2023-05-21T04:53:19;12.60;99.90
11009;DHT22;5557;51.670;7.788;2023-05-21T04:55:46;12.60;99.90
11009;DHT22;5557;51.670;7.788;2023-05-21T04:58:13;12.60;99.90
11009;DHT22;5557;51.670;7.788;2023-05-21T05:00:43;12.70;99.90
11009;DHT22;5557;51.670;7.788;2023-05-21T05:03:12;12.70;99.90
11009;DHT22;5557;51.670;7.788;2023-05-21T05:05:40;12.70;99.90
11009;DHT22;5557;51.670;7.788;2023-05-21T05:08:07;12.70;99.90
11009;DHT22;5557;51.670;7.788;2023-05-21T05:10:34;12.80;99.90
11009;DHT22;5557;51.670;7.788;2023-05-21T05:13:02;12.80;99.90
11009;DHT22;5557;51.670;7.788;2023-05-21T05:15:29;12.80;99.90
11009;DHT22;5557;51.670;7.788;2023-05-21T05:17:56;12.90;99.90
11009;DHT22;5557;51.670;7.788;2023-05-21T05:20:23;12.90;99.70
11009;DHT22;5557;51.670;7.788;2023-05-21T05:22:49;13.00;99.30
11009;DHT22;5557;51.670;7.788;2023-05-21T05:25:16;13.00;98.60
11009;DHT22;5557;51.670;7.788;2023-05-21T05:27:43;13.00;97.90
11009;DHT22;5557;51.670;7.788;2023-05-21T05:30:11;13.10;97.20
11009;DHT22;5557;51.670;7.788;2023-05-21T05:32:38;13.10;97.00
11009;DHT22;5557;51.670;7.788;2023-05-21T05:35:06;13.20;96.30
11009;DHT22;5557;51.670;7.788;2023-05-21T05:37:33;13.20;95.50
11009;DHT22;5557;51.670;7.788;2023-05-21T05:39:59;13.20;95.00
11009;DHT22;5557;51.670;7.788;2023-05-21T05:42:26;13.30;94.40
11009;DHT22;5557;51.670;7.788;2023-05-21T05:44:53;13.30;94.00
11009;DHT22;5557;51.670;7.788;2023-05-21T05:47:21;13.30;93.10
11009;DHT22;5557;51.670;7.788;2023-05-21T05:49:48;13.40;93.10
11009;DHT22;5557;51.670;7.788;2023-05-21T05:52:14;13.40;92.50
11009;DHT22;5557;51.670;7.788;2023-05-21T05:54:41;13.40;91.10
11009;DHT22;5557;51.670;7.788;2023-05-21T05:57:08;13.50;91.20
11009;DHT22;5557;51.670;7.788;2023-05-21T05:59:35;13.50;90.60
11009;DHT22;5557;51.670;7.788;2023-05-21T06:02:02;13.50;90.60
11009;DHT22;5557;51.670;7.788;2023-05-21T06:04:29;13.60;89.70
11009;DHT22;5557;51.670;7.788;2023-05-21T06:06:56;13.70;89.50
11009;DHT22;5557;51.670;7.788;2023-05-21T06:09:24;13.70;87.70
11009;DHT22;5557;51.670;7.788;2023-05-21T06:11:51;13.80;86.50
11009;DHT22;5557;51.670;7.788;2023-05-21T06:14:18;13.90;85.70
11009;DHT22;5557;51.670;7.788;2023-05-21T06:16:45;14.00;83.90
11009;DHT22;5557;51.670;7.788;2023-05-21T06:19:12;14.00;79.00
11009;DHT22;5557;51.670;7.788;2023-05-21T06:21:39;14.00;79.20
11009;DHT22;5557;51.670;7.788;2023-05-21T06:24:06;14.00;80.10
11009;DHT22;5557;51.670;7.788;2023-05-21T06:26:33;14.00;80.60
11009;DHT22;5557;51.670;7.788;2023-05-21T06:28:59;14.10;78.00
11009;DHT22;5557;51.670;7.788;2023-05-21T06:31:26;14.10;78.40
11009;DHT22;5557;51.670;7.788;2023-05-21T06:33:54;14.20;77.40
11009;DHT22;5557;51.670;7.788;2023-05-21T06:36:21;14.20;77.50
11009;DHT22;5557;51.670;7.788;2023-05-21T06:38:51;14.20;75.80
11009;DHT22;5557;51.670;7.788;2023-05-21T06:41:18;14.30;77.40
11009;DHT22;5557;51.670;7.788;2023-05-21T06:43:45;14.50;69.50
11009;DHT22;5557;51.670;7.788;2023-05-21T06:46:12;14.50;67.20
11009;DHT22;5557;51.670;7.788;2023-05-21T06:48:39;14.50;69.60
11009;DHT22;5557;51.670;7.788;2023-05-21T06:51:06;14.50;68.90
11009;DHT22;5557;51.670;7.788;2023-05-21T06:53:32;14.70;68.10
11009;DHT22;5557;51.670;7.788;2023-05-21T06:55:59;14.70;63.80
11009;DHT22;5557;51.670;7.788;2023-05-21T06:58:26;14.70;65.10
11009;DHT22;5557;51.670;7.788;2023-05-21T07:00:57;14.80;63.60
11009;DHT22;5557;51.670;7.788;2023-05-21T07:03:24;15.00;60.60
11009;DHT22;5557;51.670;7.788;2023-05-21T07:05:53;15.00;57.60
11009;DHT22;5557;51.670;7.788;2023-05-21T07:08:19;15.20;54.80
11009;DHT22;5557;51.670;7.788;2023-05-21T07:10:47;15.10;51.40
11009;DHT22;5557;51.670;7.788;2023-05-21T07:13:15;15.10;55.80
11009;DHT22;5557;51.670;7.788;2023-05-21T07:15:42;15.20;53.40
11009;DHT22;5557;51.670;7.788;2023-05-21T07:18:08;15.20;54.00
11009;DHT22;5557;51.670;7.788;2023-05-21T07:20:35;15.30;54.60
11009;DHT22;5557;51.670;7.788;2023-05-21T07:23:02;15.60;51.20
11009;DHT22;5557;51.670;7.788;2023-05-21T07:25:29;15.80;43.70
11009;DHT22;5557;51.670;7.788;2023-05-21T07:27:56;15.80;39.60
11009;DHT22;5557;51.670;7.788;2023-05-21T07:30:23;15.90;38.40
11009;DHT22;5557;51.670;7.788;2023-05-21T07:32:50;16.00;40.30
11009;DHT22;5557;51.670;7.788;2023-05-21T07:35:17;16.20;34.90
11009;DHT22;5557;51.670;7.788;2023-05-21T07:37:44;16.30;34.40
11009;DHT22;5557;51.670;7.788;2023-05-21T07:40:12;16.30;31.10
11009;DHT22;5557;51.670;7.788;2023-05-21T07:42:39;16.30;30.00
11009;DHT22;5557;51.670;7.788;2023-05-21T07:45:07;16.40;29.70
11009;DHT22;5557;51.670;7.788;2023-05-21T07:47:34;16.60;29.10
11009;DHT22;5557;51.670;7.788;2023-05-21T07:50:01;16.70;24.80
11009;DHT22;5557;51.670;7.788;2023-05-21T07:52:27;16.70;25.60
11009;DHT22;5557;51.670;7.788;2023-05-21T07:54:54;16.40;27.50
11009;DHT22;5557;51.670;7.788;2023-05-21T07:57:21;16.40;30.00
11009;DHT22;5557;51.670;7.788;2023-05-21T07:59:48;16.50;30.20
11009;DHT22;5557;51.670;7.788;2023-05-21T08:02:15;16.60;29.40
11009;DHT22;5557;51.670;7.788;2023-05-21T08:04:42;16.80;27.40
11009;DHT22;5557;51.670;7.788;2023-05-21T08:07:10;16.80;26.60
11009;DHT22;5557;51.670;7.788;2023-05-21T08:09:38;16.70;28.10
11009;DHT22;5557;51.670;7.788;2023-05-21T08:12:06;16.80;31.30
11009;DHT22;5557;51.670;7.788;2023-05-21T08:14:33;16.90;27.60
11009;DHT22;5557;51.670;7.788;2023-05-21T08:16:59;17.00;25.40
11009;DHT22;5557;51.670;7.788;2023-05-21T08:19:26;17.10;24.60
11009;DHT22;5557;51.670;7.788;2023-05-21T08:21:53;17.20;23.20
11009;DHT22;5557;51.670;7.788;2023-05-21T08:24:20;17.20;23.10
11009;DHT22;5557;51.670;7.788;2023-05-21T08:26:48;17.20;21.80
11009;DHT22;5557;51.670;7.788;2023-05-21T08:29:16;17.30;23.50
11009;DHT22;5557;51.670;7.788;2023-05-21T08:31:43;17.40;22.00
11009;DHT22;5557;51.670;7.788;2023-05-21T08:34:10;17.50;19.40
11009;DHT22;5557;51.670;7.788;2023-05-21T08:36:37;17.70;19.00
11009;DHT22;5557;51.670;7.788;2023-05-21T08:39:04;17.90;14.70
11009;DHT22;5557;51.670;7.788;2023-05-21T08:41:34;18.10;14.10
11009;DHT22;5557;51.670;7.788;2023-05-21T08:44:01;18.30;10.50
11009;DHT22;5557;51.670;7.788;2023-05-21T08:46:31;18.50;7.60
11009;DHT22;5557;51.670;7.788;2023-05-21T08:49:01;18.80;6.00
11009;DHT22;5557;51.670;7.788;2023-05-21T08:51:29;19.30;2.50
11009;DHT22;5557;51.670;7.788;2023-05-21T08:53:58;19.70;1.00
11009;DHT22;5557;51.670;7.788;2023-05-21T08:56:27;20.50;1.00
11009;DHT22;5557;51.670;7.788;2023-05-21T08:58:58;20.90;1.00
11009;DHT22;5557;51.670;7.788;2023-05-21T09:01:25;21.60;1.00
11009;DHT22;5557;51.670;7.788;2023-05-21T09:03:55;22.10;1.00
11009;DHT22;5557;51.670;7.788;2023-05-21T09:06:39;22.30;1.00
11009;DHT22;5557;51.670;7.788;2023-05-21T09:11:57;22.60;1.00
11009;DHT22;5557;51.670;7.788;2023-05-21T09:14:24;22.60;1.00
11009;DHT22;5557;51.670;7.788;2023-05-21T09:16:52;22.80;1.00
11009;DHT22;5557;51.670;7.788;2023-05-21T09:19:21;22.80;1.00
11009;DHT22;5557;51.670;7.788;2023-05-21T09:21:51;23.00;1.00
11009;DHT22;5557;51.670;7.788;2023-05-21T09:24:21;23.30;1.00
11009;DHT22;5557;51.670;7.788;2023-05-21T09:26:50;23.20;1.00
11009;DHT22;5557;51.670;7.788;2023-05-21T09:29:18;23.30;1.00
11009;DHT22;5557;51.670;7.788;2023-05-21T09:31:45;22.40;1.00
11009;DHT22;5557;51.670;7.788;2023-05-21T09:34:13;21.20;1.00
11009;DHT22;5557;51.670;7.788;2023-05-21T09:36:40;20.90;1.00
11009;DHT22;5557;51.670;7.788;2023-05-21T09:39:07;20.50;1.00
11009;DHT22;5557;51.670;7.788;2023-05-21T09:41:42;20.60;1.00
11009;DHT22;5557;51.670;7.788;2023-05-21T09:44:09;20.40;1.00
11009;DHT22;5557;51.670;7.788;2023-05-21T09:46:39;20.20;1.00
11009;DHT22;5557;51.670;7.788;2023-05-21T09:49:24;19.90;1.00
11009;DHT22;5557;51.670;7.788;2023-05-21T09:51:56;20.20;1.00
11009;DHT22;5557;51.670;7.788;2023-05-21T09:54:30;20.60;1.00
11009;DHT22;5557;51.670;7.788;2023-05-21T09:57:01;20.70;1.00
11009;DHT22;5557;51.670;7.788;2023-05-21T09:59:35;20.80;1.00
11009;DHT22;5557;51.670;7.788;2023-05-21T10:02:04;20.90;1.00
11009;DHT22;5557;51.670;7.788;2023-05-21T10:04:40;21.00;1.00
11009;DHT22;5557;51.670;7.788;2023-05-21T10:07:08;21.10;1.00
11009;DHT22;5557;51.670;7.788;2023-05-21T10:09:35;21.60;1.00
11009;DHT22;5557;51.670;7.788;2023-05-21T10:12:02;22.10;1.00
11009;DHT22;5557;51.670;7.788;2023-05-21T10:14:30;22.40;1.00
11009;DHT22;5557;51.670;7.788;2023-05-21T10:16:58;22.90;1.00
11009;DHT22;5557;51.670;7.788;2023-05-21T10:19:28;22.50;1.00
11009;DHT22;5557;51.670;7.788;2023-05-21T10:21:56;22.20;1.00
11009;DHT22;5557;51.670;7.788;2023-05-21T10:24:23;22.50;1.00
11009;DHT22;5557;51.670;7.788;2023-05-21T10:26:51;22.90;1.00
11009;DHT22;5557;51.670;7.788;2023-05-21T10:29:18;23.00;1.00
11009;DHT22;5557;51.670;7.788;2023-05-21T10:31:46;22.60;1.00
11009;DHT22;5557;51.670;7.788;2023-05-21T10:34:15;22.10;1.00
11009;DHT22;5557;51.670;7.788;2023-05-21T10:36:43;22.10;1.00
11009;DHT22;5557;51.670;7.788;2023-05-21T10:39:11;22.10;1.00
11009;DHT22;5557;51.670;7.788;2023-05-21T10:42:04;22.30;1.00
11009;DHT22;5557;51.670;7.788;2023-05-21T10:48:28;22.60;1.00
11009;DHT22;5557;51.670;7.788;2023-05-21T10:51:16;22.30;1.00
11009;DHT22;5557;51.670;7.788;2023-05-21T10:54:22;22.40;1.00
11009;DHT22;5557;51.670;7.788;2023-05-21T10:59:47;21.80;1.00
11009;DHT22;5557;51.670;7.788;2023-05-21T11:02:16;21.80;1.00
11009;DHT22;5557;51.670;7.788;2023-05-21T11:04:45;21.70;1.00
11009;DHT22;5557;51.670;7.788;2023-05-21T11:07:22;22.00;1.00
11009;DHT22;5557;51.670;7.788;2023-05-21T11:09:50;22.10;1.00
11009;DHT22;5557;51.670;7.788;2023-05-21T11:12:17;21.80;1.00
11009;DHT22;5557;51.670;7.788;2023-05-21T11:14:57;21.70;1.00
11009;DHT22;5557;51.670;7.788;2023-05-21T11:17:39;21.70;1.00
11009;DHT22;5557;51.670;7.788;2023-05-21T11:20:11;21.60;1.00
11009;DHT22;5557;51.670;7.788;2023-05-21T11:22:39;21.70;1.00
11009;DHT22;5557;51.670;7.788;2023-05-21T11:25:07;22.00;1.00
11009;DHT22;5557;51.670;7.788;2023-05-21T11:27:40;22.60;1.00
11009;DHT22;5557;51.670;7.788;2023-05-21T11:30:18;22.70;1.00
11009;DHT22;5557;51.670;7.788;2023-05-21T11:35:57;22.90;1.00
11009;DHT22;5557;51.670;7.788;2023-05-21T11:38:28;22.80;1.00
11009;DHT22;5557;51.670;7.788;2023-05-21T11:41:02;22.60;1.00
11009;DHT22;5557;51.670;7.788;2023-05-21T11:43:29;22.60;1.00
11009;DHT22;5557;51.670;7.788;2023-05-21T11:45:56;22.60;1.00
11009;DHT22;5557;51.670;7.788;2023-05-21T11:48:25;22.80;1.00
11009;DHT22;5557;51.670;7.788;2023-05-21T11:50:55;22.90;1.00
11009;DHT22;5557;51.670;7.788;2023-05-21T11:53:23;22.80;1.00
11009;DHT22;5557;51.670;7.788;2023-05-21T11:55:50;22.70;1.00
11009;DHT22;5557;51.670;7.788;2023-05-21T11:58:23;22.40;1.00
11009;DHT22;5557;51.670;7.788;2023-05-21T12:00:50;22.50;1.00
11009;DHT22;5557;51.670;7.788;2023-05-21T12:03:17;22.50;1.00
11009;DHT22;5557;51.670;7.788;2023-05-21T12:05:48;22.40;1.00
11009;DHT22;5557;51.670;7.788;2023-05-21T12:08:22;22.50;1.00
11009;DHT22;5557;51.670;7.788;2023-05-21T12:10:57;22.50;1.00
11009;DHT22;5557;51.670;7.788;2023-05-21T12:13:24;22.70;1.00
11009;DHT22;5557;51.670;7.788;2023-05-21T12:15:53;22.60;1.00
11009;DHT22;5557;51.670;7.788;2023-05-21T12:18:20;22.80;1.00
11009;DHT22;5557;51.670;7.788;2023-05-21T12:20:47;22.80;1.00
11009;DHT22;5557;51.670;7.788;2023-05-21T12:23:23;22.70;1.00
11009;DHT22;5557;51.670;7.788;2023-05-21T12:25:50;22.80;1.00
11009;DHT22;5557;51.670;7.788;2023-05-21T12:28:22;23.00;1.00
11009;DHT22;5557;51.670;7.788;2023-05-21T12:30:50;23.00;1.00
11009;DHT22;5557;51.670;7.788;2023-05-21T12:33:17;23.00;1.00
11009;DHT22;5557;51.670;7.788;2023-05-21T12:35:48;23.10;1.00
11009;DHT22;5557;51.670;7.788;2023-05-21T12:38:16;23.20;1.00
11009;DHT22;5557;51.670;7.788;2023-05-21T12:40:43;23.30;1.00
11009;DHT22;5557;51.670;7.788;2023-05-21T12:43:11;23.40;1.00
11009;DHT22;5557;51.670;7.788;2023-05-21T12:45:38;23.50;1.00
11009;DHT22;5557;51.670;7.788;2023-05-21T12:48:05;23.10;1.00
11009;DHT22;5557;51.670;7.788;2023-05-21T12:50:33;22.80;1.00
11009;DHT22;5557;51.670;7.788;2023-05-21T12:53:01;22.90;1.00
11009;DHT22;5557;51.670;7.788;2023-05-21T12:55:30;23.10;1.00
11009;DHT22;5557;51.670;7.788;2023-05-21T12:58:04;22.90;1.00
11009;DHT22;5557;51.670;7.788;2023-05-21T13:00:34;23.20;1.00
11009;DHT22;5557;51.670;7.788;2023-05-21T13:03:02;23.20;1.00
11009;DHT22;5557;51.670;7.788;2023-05-21T13:05:32;23.30;1.00
11009;DHT22;5557;51.670;7.788;2023-05-21T13:07:59;23.50;1.00
11009;DHT22;5557;51.670;7.788;2023-05-21T13:10:26;23.20;1.00
11009;DHT22;5557;51.670;7.788;2023-05-21T13:12:53;23.30;1.00
11009;DHT22;5557;51.670;7.788;2023-05-21T13:15:20;23.20;1.00
11009;DHT22;5557;51.670;7.788;2023-05-21T13:17:48;23.20;1.00
11009;DHT22;5557;51.670;7.788;2023-05-21T13:20:18;23.20;1.00
11009;DHT22;5557;51.670;7.788;2023-05-21T13:22:49;23.50;1.00
11009;DHT22;5557;51.670;7.788;2023-05-21T13:25:18;23.50;1.00
11009;DHT22;5557;51.670;7.788;2023-05-21T13:27:51;23.40;1.00
11009;DHT22;5557;51.670;7.788;2023-05-21T13:30:19;23.30;1.00
11009;DHT22;5557;51.670;7.788;2023-05-21T13:32:46;23.30;1.00
11009;DHT22;5557;51.670;7.788;2023-05-21T13:35:13;23.50;1.00
11009;DHT22;5557;51.670;7.788;2023-05-21T13:37:43;23.80;1.00
11009;DHT22;5557;51.670;7.788;2023-05-21T13:40:12;23.80;1.00
11009;DHT22;5557;51.670;7.788;2023-05-21T13:42:47;23.80;1.00
11009;DHT22;5557;51.670;7.788;2023-05-21T13:45:16;23.80;1.00
11009;DHT22;5557;51.670;7.788;2023-05-21T13:47:44;23.80;1.00
11009;DHT22;5557;51.670;7.788;2023-05-21T13:50:11;23.90;1.00
11009;DHT22;5557;51.670;7.788;2023-05-21T13:52:39;23.90;1.00
11009;DHT22;5557;51.670;7.788;2023-05-21T13:55:07;24.10;1.00
11009;DHT22;5557;51.670;7.788;2023-05-21T13:57:34;23.90;1.00
11009;DHT22;5557;51.670;7.788;2023-05-21T14:00:02;23.80;1.00
11009;DHT22;5557;51.670;7.788;2023-05-21T14:02:29;24.00;1.00
11009;DHT22;5557;51.670;7.788;2023-05-21T14:04:56;24.10;1.00
11009;DHT22;5557;51.670;7.788;2023-05-21T14:07:23;24.00;1.00
11009;DHT22;5557;51.670;7.788;2023-05-21T14:09:50;24.10;1.00
11009;DHT22;5557;51.670;7.788;2023-05-21T14:12:17;24.40;1.00
11009;DHT22;5557;51.670;7.788;2023-05-21T14:14:44;24.20;1.00
11009;DHT22;5557;51.670;7.788;2023-05-21T14:17:11;24.10;1.00
11009;DHT22;5557;51.670;7.788;2023-05-21T14:19:38;23.90;1.00
11009;DHT22;5557;51.670;7.788;2023-05-21T14:22:05;23.60;1.00
11009;DHT22;5557;51.670;7.788;2023-05-21T14:24:32;23.60;1.00
11009;DHT22;5557;51.670;7.788;2023-05-21T14:26:59;23.60;1.00
11009;DHT22;5557;51.670;7.788;2023-05-21T14:29:26;23.50;1.00
11009;DHT22;5557;51.670;7.788;2023-05-21T14:31:53;23.50;1.00
11009;DHT22;5557;51.670;7.788;2023-05-21T14:34:20;23.50;1.00
11009;DHT22;5557;51.670;7.788;2023-05-21T14:36:47;23.50;1.00
11009;DHT22;5557;51.670;7.788;2023-05-21T14:39:13;23.50;1.00
11009;DHT22;5557;51.670;7.788;2023-05-21T14:41:41;23.50;1.00
11009;DHT22;5557;51.670;7.788;2023-05-21T14:44:08;23.50;1.00
11009;DHT22;5557;51.670;7.788;2023-05-21T14:46:35;23.60;1.00
11009;DHT22;5557;51.670;7.788;2023-05-21T14:49:02;23.60;1.00
11009;DHT22;5557;51.670;7.788;2023-05-21T14:51:29;23.70;1.00
11009;DHT22;5557;51.670;7.788;2023-05-21T14:53:57;23.70;1.00
11009;DHT22;5557;51.670;7.788;2023-05-21T14:56:25;23.60;1.00
11009;DHT22;5557;51.670;7.788;2023-05-21T14:58:53;23.50;1.00
11009;DHT22;5557;51.670;7.788;2023-05-21T15:01:20;23.40;1.00
11009;DHT22;5557;51.670;7.788;2023-05-21T15:03:48;23.60;1.00
11009;DHT22;5557;51.670;7.788;2023-05-21T15:06:15;23.80;1.00
11009;DHT22;5557;51.670;7.788;2023-05-21T15:08:42;23.90;1.00
11009;DHT22;5557;51.670;7.788;2023-05-21T15:11:09;24.00;1.00
11009;DHT22;5557;51.670;7.788;2023-05-21T15:13:37;24.00;1.00
11009;DHT22;5557;51.670;7.788;2023-05-21T15:16:04;24.20;1.00
11009;DHT22;5557;51.670;7.788;2023-05-21T15:18:32;24.30;1.00
11009;DHT22;5557;51.670;7.788;2023-05-21T15:20:59;24.40;1.00
11009;DHT22;5557;51.670;7.788;2023-05-21T15:23:26;24.40;1.00
11009;DHT22;5557;51.670;7.788;2023-05-21T15:25:54;24.40;1.00
11009;DHT22;5557;51.670;7.788;2023-05-21T15:28:21;24.40;1.00
11009;DHT22;5557;51.670;7.788;2023-05-21T15:30:48;24.60;1.00
11009;DHT22;5557;51.670;7.788;2023-05-21T15:33:16;24.60;1.00
11009;DHT22;5557;51.670;7.788;2023-05-21T15:35:43;24.50;1.00
11009;DHT22;5557;51.670;7.788;2023-05-21T15:38:10;24.40;1.00
11009;DHT22;5557;51.670;7.788;2023-05-21T15:40:38;24.30;1.00
11009;DHT22;5557;51.670;7.788;2023-05-21T15:43:07;24.20;1.00
11009;DHT22;5557;51.670;7.788;2023-05-21T15:45:34;24.20;1.00
11009;DHT22;5557;51.670;7.788;2023-05-21T15:48:01;24.20;1.00
11009;DHT22;5557;51.670;7.788;2023-05-21T15:50:28;24.20;1.00
11009;DHT22;5557;51.670;7.788;2023-05-21T15:52:55;24.20;1.00
11009;DHT22;5557;51.670;7.788;2023-05-21T15:55:22;24.20;1.00
11009;DHT22;5557;51.670;7.788;2023-05-21T15:57:48;24.20;1.00
11009;DHT22;5557;51.670;7.788;2023-05-21T16:00:15;24.00;1.00
11009;DHT22;5557;51.670;7.788;2023-05-21T16:02:42;24.00;1.00
11009;DHT22;5557;51.670;7.788;2023-05-21T16:05:10;24.10;1.00
11009;DHT22;5557;51.670;7.788;2023-05-21T16:07:37;24.20;1.00
11009;DHT22;5557;51.670;7.788;2023-05-21T16:10:05;24.20;1.00
11009;DHT22;5557;51.670;7.788;2023-05-21T16:12:32;24.20;1.00
11009;DHT22;5557;51.670;7.788;2023-05-21T16:14:59;24.20;1.00